createdAt,value
2018-02-25T00:01:05.792Z,3.60
2018-02-25T00:03:34.068Z,3.53
2018-02-25T00:06:02.311Z,4.05
2018-02-25T00:08:30.601Z,3.62
2018-02-25T00:10:58.924Z,4.20
2018-02-25T00:13:27.262Z,4.00
2018-02-25T00:15:55.464Z,3.87
2018-02-25T00:18:23.778Z,3.80
2018-02-25T00:20:52.005Z,4.07
2018-02-25T00:23:20.347Z,3.80
2018-02-25T00:25:48.595Z,3.60
2018-02-25T00:28:16.858Z,4.10
2018-02-25T00:30:45.093Z,3.90
2018-02-25T00:33:14.113Z,3.72
2018-02-25T00:35:42.398Z,3.58
2018-02-25T00:38:10.689Z,4.15
2018-02-25T00:40:38.895Z,3.90
2018-02-25T00:43:07.173Z,3.78
2018-02-25T00:45:35.378Z,3.87
2018-02-25T00:48:03.685Z,4.40
2018-02-25T00:50:31.909Z,3.80
2018-02-25T00:53:00.177Z,3.85
2018-02-25T00:55:28.394Z,4.10
2018-02-25T00:57:56.687Z,4.80
2018-02-25T01:00:24.942Z,4.20
2018-02-25T01:02:53.238Z,3.87
2018-02-25T01:05:21.464Z,3.80
2018-02-25T01:07:49.700Z,3.67
2018-02-25T01:10:17.939Z,3.55
2018-02-25T01:12:46.180Z,3.87
2018-02-25T01:15:14.441Z,3.80
2018-02-25T01:17:42.688Z,4.50
2018-02-25T01:20:10.917Z,4.05
2018-02-25T01:22:39.230Z,3.87
2018-02-25T01:25:07.512Z,4.35
2018-02-25T01:27:35.781Z,3.60
2018-02-25T01:30:04.057Z,3.97
2018-02-25T01:32:32.353Z,3.80
2018-02-25T01:35:00.610Z,3.60
2018-02-25T01:37:28.895Z,3.13
2018-02-25T01:39:57.147Z,3.67
2018-02-25T01:42:26.176Z,3.07
2018-02-25T01:44:54.429Z,4.50
2018-02-25T01:47:22.713Z,3.50
2018-02-25T01:49:50.974Z,4.50
2018-02-25T01:52:19.958Z,5.30
2018-02-25T01:54:48.968Z,4.78
2018-02-25T01:57:17.207Z,3.70
2018-02-25T01:59:45.453Z,4.82
2018-02-25T02:02:13.687Z,4.65
2018-02-25T02:04:42.717Z,5.10
2018-02-25T02:07:10.982Z,4.68
2018-02-25T02:09:39.254Z,5.18
2018-02-25T02:12:07.554Z,5.37
2018-02-25T02:14:35.810Z,4.80
2018-02-25T02:17:04.090Z,5.00
2018-02-25T02:19:32.331Z,4.65
2018-02-25T02:22:01.342Z,4.95
2018-02-25T02:24:29.638Z,5.05
2018-02-25T02:26:57.926Z,5.12
2018-02-25T02:29:26.186Z,5.30
2018-02-25T02:31:54.423Z,5.80
2018-02-25T02:34:23.431Z,5.53
2018-02-25T02:36:52.453Z,5.50
2018-02-25T02:39:20.729Z,5.05
2018-02-25T02:41:48.981Z,4.95
2018-02-25T02:44:17.226Z,5.25
2018-02-25T02:46:45.500Z,4.87
2018-02-25T02:49:13.727Z,5.15
2018-02-25T02:51:41.971Z,5.18
2018-02-25T02:54:10.993Z,5.20
2018-02-25T02:56:39.252Z,5.47
2018-02-25T02:59:08.261Z,5.40
2018-02-25T03:01:36.550Z,5.63
2018-02-25T03:04:04.818Z,5.37
2018-02-25T03:06:33.030Z,4.90
2018-02-25T03:09:01.288Z,5.03
2018-02-25T03:11:29.516Z,4.78
2018-02-25T03:13:57.833Z,5.07
2018-02-25T03:16:26.077Z,4.75
2018-02-25T03:18:55.121Z,4.90
2018-02-25T03:21:23.384Z,4.50
2018-02-25T03:23:51.623Z,4.60
2018-02-25T03:26:20.628Z,4.30
2018-02-25T03:28:49.662Z,4.95
2018-02-25T03:31:17.898Z,4.40
2018-02-25T03:33:46.890Z,4.68
2018-02-25T03:36:15.914Z,4.53
2018-02-25T03:38:44.177Z,4.72
2018-02-25T03:41:12.391Z,4.20
2018-02-25T03:43:40.741Z,4.68
2018-02-25T03:46:09.007Z,4.47
2018-02-25T03:48:37.295Z,4.95
2018-02-25T03:51:05.532Z,4.57
2018-02-25T03:53:34.593Z,4.65
2018-02-25T03:56:02.835Z,4.53
2018-02-25T03:58:31.106Z,4.55
2018-02-25T04:00:59.328Z,4.65
2018-02-25T04:03:27.569Z,4.37
2018-02-25T04:05:55.828Z,4.25
2018-02-25T04:08:24.047Z,4.43
2018-02-25T04:10:52.395Z,4.40
2018-02-25T04:13:20.676Z,4.40
2018-02-25T04:15:48.952Z,4.30
2018-02-25T04:18:17.217Z,4.40
2018-02-25T04:20:45.482Z,4.47
2018-02-25T04:23:14.471Z,4.70
2018-02-25T04:25:43.593Z,4.05
2018-02-25T04:28:11.831Z,4.20
2018-02-25T04:30:40.846Z,4.12
2018-02-25T04:33:09.140Z,4.05
2018-02-25T04:35:37.377Z,4.43
2018-02-25T04:38:06.385Z,4.35
2018-02-25T04:40:35.454Z,4.82
2018-02-25T04:43:03.672Z,4.57
2018-02-25T04:45:31.897Z,4.68
2018-02-25T04:48:00.220Z,4.55
2018-02-25T04:50:29.117Z,4.90
2018-02-25T04:52:57.365Z,4.60
2018-02-25T04:55:26.396Z,4.60
2018-02-25T04:57:54.621Z,4.43
2018-02-25T05:00:22.935Z,4.60
2018-02-25T05:02:51.200Z,4.50
2018-02-25T05:05:20.313Z,5.03
2018-02-25T05:07:48.612Z,4.70
2018-02-25T05:10:16.846Z,4.60
2018-02-25T05:12:46.455Z,4.70
2018-02-25T05:15:15.506Z,4.45
2018-02-25T05:17:43.727Z,4.72
2018-02-25T05:20:12.747Z,4.47
2018-02-25T05:22:40.986Z,4.82
2018-02-25T05:25:10.013Z,4.93
2018-02-25T05:27:38.345Z,4.72
2018-02-25T05:30:06.545Z,5.25
2018-02-25T05:32:35.562Z,5.05
2018-02-25T05:35:03.829Z,5.00
2018-02-25T05:37:32.115Z,5.00
2018-02-25T05:40:00.327Z,4.40
2018-02-25T05:42:28.555Z,4.72
2018-02-25T05:44:56.838Z,5.00
2018-02-25T05:47:25.053Z,5.20
2018-02-25T05:49:53.292Z,4.72
2018-02-25T05:52:21.543Z,4.82
2018-02-25T05:54:50.532Z,4.70
2018-02-25T05:57:19.548Z,5.05
2018-02-25T05:59:47.777Z,4.87
2018-02-25T06:02:16.021Z,4.87
2018-02-25T06:04:44.252Z,4.80
2018-02-25T06:07:12.518Z,5.40
2018-02-25T06:09:41.542Z,4.80
2018-02-25T06:12:09.764Z,5.25
2018-02-25T06:14:38.040Z,4.60
2018-02-25T06:17:06.282Z,5.18
2018-02-25T06:19:34.552Z,4.77
2018-02-25T06:22:02.776Z,5.18
2018-02-25T06:24:31.814Z,5.00
2018-02-25T06:27:00.193Z,5.07
2018-02-25T06:29:28.413Z,4.90
2018-02-25T06:31:56.688Z,4.82
2018-02-25T06:34:24.926Z,5.15
2018-02-25T06:36:53.153Z,5.22
2018-02-25T06:39:21.634Z,5.70
2018-02-25T06:41:50.003Z,5.22
2018-02-25T06:44:18.244Z,5.12
2018-02-25T06:46:46.493Z,5.18
2018-02-25T06:49:15.535Z,5.40
2018-02-25T06:51:43.804Z,5.20
2018-02-25T06:54:12.014Z,5.03
2018-02-25T06:56:40.352Z,6.20
2018-02-25T06:59:08.616Z,5.70
2018-02-25T07:01:36.896Z,6.22
2018-02-25T07:04:05.131Z,5.30
2018-02-25T07:06:33.442Z,5.80
2018-02-25T07:09:01.705Z,5.62
2018-02-25T07:11:29.948Z,5.23
2018-02-25T07:13:58.288Z,5.65
2018-02-25T07:16:26.613Z,5.35
2018-02-25T07:18:55.707Z,5.40
2018-02-25T07:21:24.037Z,5.65
2018-02-25T07:23:52.387Z,5.72
2018-02-25T07:26:20.707Z,5.72
2018-02-25T07:28:49.118Z,5.80
2018-02-25T07:31:17.461Z,5.35
2018-02-25T07:33:45.711Z,5.68
2018-02-25T07:36:13.933Z,5.40
2018-02-25T07:38:42.162Z,5.50
2018-02-25T07:41:10.400Z,5.28
2018-02-25T07:43:38.665Z,5.78
2018-02-25T07:46:06.926Z,5.40
2018-02-25T07:48:35.286Z,5.20
2018-02-25T07:51:03.655Z,5.35
2018-02-25T07:53:31.936Z,5.07
2018-02-25T07:56:00.154Z,5.18
2018-02-25T07:58:28.413Z,5.20
2018-02-25T08:00:56.683Z,5.20
2018-02-25T08:03:24.954Z,4.85
2018-02-25T08:05:53.292Z,4.80
2018-02-25T08:08:21.610Z,4.32
2018-02-25T08:10:49.753Z,4.10
2018-02-25T08:13:18.776Z,4.05
2018-02-25T08:15:47.030Z,3.67
2018-02-25T08:18:15.294Z,4.03
2018-02-25T08:20:44.345Z,4.03
2018-02-25T08:23:12.565Z,4.40
2018-02-25T08:25:41.642Z,4.00
2018-02-25T08:28:10.662Z,4.30
2018-02-25T08:30:38.880Z,3.87
2018-02-25T08:33:07.132Z,4.07
2018-02-25T08:35:35.408Z,3.80
2018-02-25T08:38:03.734Z,4.28
2018-02-25T08:40:32.015Z,4.25
2018-02-25T08:43:00.326Z,3.70
2018-02-25T08:45:28.588Z,3.80
2018-02-25T08:47:57.636Z,4.10
2018-02-25T08:50:25.882Z,3.75
2018-02-25T08:52:54.168Z,4.80
2018-02-25T08:55:22.399Z,3.78
2018-02-25T08:57:51.423Z,3.37
2018-02-25T09:00:19.660Z,4.10
2018-02-25T09:02:47.944Z,4.03
2018-02-25T09:05:16.165Z,3.28
2018-02-25T09:07:44.430Z,3.62
2018-02-25T09:10:12.704Z,3.53
2018-02-25T09:12:40.922Z,3.50
2018-02-25T09:15:09.163Z,3.30
2018-02-25T09:17:37.413Z,3.40
2018-02-25T09:20:06.436Z,4.00
2018-02-25T09:22:34.649Z,3.33
2018-02-25T09:25:02.915Z,3.05
2018-02-25T09:27:31.150Z,3.05
2018-02-25T09:29:59.460Z,3.45
2018-02-25T09:32:27.693Z,3.30
2018-02-25T09:34:56.122Z,3.30
2018-02-25T09:37:24.365Z,3.60
2018-02-25T09:39:52.636Z,3.55
2018-02-25T09:42:20.849Z,3.78
2018-02-25T09:44:49.197Z,3.83
2018-02-25T09:47:17.412Z,4.45
2018-02-25T09:49:45.761Z,3.75
2018-02-25T09:52:14.066Z,4.50
2018-02-25T09:54:42.292Z,4.50
2018-02-25T09:57:10.537Z,3.97
2018-02-25T09:59:38.873Z,3.42
2018-02-25T10:02:07.123Z,3.30
2018-02-25T10:04:36.141Z,3.30
2018-02-25T10:07:04.424Z,2.87
2018-02-25T10:09:32.682Z,2.85
2018-02-25T10:12:00.931Z,3.20
2018-02-25T10:14:29.949Z,2.90
2018-02-25T10:16:58.184Z,3.30
2018-02-25T10:19:26.447Z,2.67
2018-02-25T10:21:54.651Z,2.17
2018-02-25T10:24:23.806Z,2.40
2018-02-25T10:26:52.058Z,2.60
2018-02-25T10:29:21.159Z,2.90
2018-02-25T10:31:49.358Z,2.65
2018-02-25T10:34:17.594Z,2.80
2018-02-25T10:36:45.867Z,2.95
2018-02-25T10:39:14.106Z,2.83
2018-02-25T10:41:42.348Z,2.90
2018-02-25T10:44:10.586Z,4.60
2018-02-25T10:46:38.810Z,2.80
2018-02-25T10:49:07.152Z,2.90
2018-02-25T10:51:35.411Z,2.77
2018-02-25T10:54:04.429Z,3.05
2018-02-25T10:56:32.658Z,3.47
2018-02-25T10:59:00.907Z,3.10
2018-02-25T11:01:29.146Z,2.72
2018-02-25T11:03:57.419Z,2.85
2018-02-25T11:06:25.712Z,2.80
2018-02-25T11:08:53.972Z,2.67
2018-02-25T11:11:22.289Z,2.87
2018-02-25T11:13:50.525Z,2.20
2018-02-25T11:16:18.806Z,2.80
2018-02-25T11:18:47.020Z,2.80
2018-02-25T11:21:16.086Z,2.60
2018-02-25T11:23:44.378Z,3.03
2018-02-25T11:26:12.609Z,2.60
2018-02-25T11:28:41.687Z,2.70
2018-02-25T11:31:09.886Z,2.70
2018-02-25T11:33:38.906Z,2.90
2018-02-25T11:36:07.178Z,2.60
2018-02-25T11:38:35.454Z,2.60
2018-02-25T11:41:03.685Z,2.75
2018-02-25T11:43:31.936Z,2.67
2018-02-25T11:46:00.161Z,2.83
2018-02-25T11:48:29.188Z,2.62
2018-02-25T11:50:57.458Z,2.65
2018-02-25T11:53:25.760Z,2.77
2018-02-25T11:55:53.970Z,3.10
2018-02-25T11:58:22.444Z,3.53
2018-02-25T12:00:50.795Z,4.15
2018-02-25T12:03:19.050Z,4.50
2018-02-25T12:05:47.276Z,4.32
2018-02-25T12:08:15.589Z,4.75
2018-02-25T12:10:43.879Z,2.80
2018-02-25T12:13:12.113Z,2.90
2018-02-25T12:15:41.167Z,3.12
2018-02-25T12:18:09.473Z,3.80
2018-02-25T12:20:37.685Z,3.10
2018-02-25T12:23:05.965Z,3.25
2018-02-25T12:25:34.209Z,3.30
2018-02-25T12:28:02.446Z,3.37
2018-02-25T12:30:30.660Z,2.85
2018-02-25T12:32:58.901Z,2.40
2018-02-25T12:35:27.172Z,3.60
2018-02-25T12:37:55.418Z,3.10
2018-02-25T12:40:23.698Z,2.72
2018-02-25T12:42:51.949Z,2.87
2018-02-25T12:45:20.940Z,3.63
2018-02-25T12:47:49.224Z,2.95
2018-02-25T12:50:17.433Z,2.50
2018-02-25T12:52:45.693Z,3.20
2018-02-25T12:55:13.971Z,3.10
2018-02-25T12:57:42.198Z,2.90
2018-02-25T13:00:10.434Z,5.82
2018-02-25T13:02:38.697Z,3.25
2018-02-25T13:05:06.945Z,3.63
2018-02-25T13:07:35.958Z,3.08
2018-02-25T13:10:04.938Z,5.45
2018-02-25T13:12:33.956Z,3.58
2018-02-25T13:15:02.271Z,3.23
2018-02-25T13:17:30.536Z,3.55
2018-02-25T13:19:58.857Z,4.10
2018-02-25T13:22:28.469Z,2.40
2018-02-25T13:24:56.830Z,2.35
2018-02-25T13:27:25.153Z,2.47
2018-02-25T13:29:53.377Z,2.55
2018-02-25T13:32:21.612Z,2.42
2018-02-25T13:34:49.943Z,2.67
2018-02-25T13:37:18.255Z,4.55
2018-02-25T13:39:46.494Z,2.67
2018-02-25T13:42:14.730Z,8.97
2018-02-25T13:44:42.995Z,4.75
2018-02-25T13:47:11.326Z,6.87
2018-02-25T13:49:39.546Z,3.40
2018-02-25T13:52:07.812Z,2.50
2018-02-25T13:54:36.069Z,2.60
2018-02-25T13:57:05.110Z,2.37
2018-02-25T13:59:33.327Z,2.33
2018-02-25T14:02:01.569Z,2.30
2018-02-25T14:04:29.935Z,2.87
2018-02-25T14:06:58.189Z,2.58
2018-02-25T14:09:27.174Z,2.47
2018-02-25T14:11:56.322Z,2.47
2018-02-25T14:14:24.621Z,2.80
2018-02-25T14:16:52.841Z,2.60
2018-02-25T14:19:21.122Z,2.60
2018-02-25T14:21:49.342Z,2.20
2018-02-25T14:24:17.663Z,2.47
2018-02-25T14:26:45.945Z,2.60
2018-02-25T14:29:14.221Z,2.80
2018-02-25T14:31:42.466Z,2.60
2018-02-25T14:34:11.503Z,2.30
2018-02-25T14:36:40.538Z,2.65
2018-02-25T14:39:08.770Z,2.60
2018-02-25T14:41:37.026Z,2.43
2018-02-25T14:44:06.024Z,2.80
2018-02-25T14:46:34.265Z,2.17
2018-02-25T14:49:02.503Z,2.30
2018-02-25T14:51:30.769Z,2.55
2018-02-25T14:53:59.025Z,2.60
2018-02-25T14:56:27.261Z,2.30
2018-02-25T14:58:55.502Z,2.40
2018-02-25T15:01:23.774Z,2.80
2018-02-25T15:03:52.053Z,3.60
2018-02-25T15:06:20.285Z,3.40
2018-02-25T15:08:49.275Z,5.03
2018-02-25T15:11:17.509Z,3.30
2018-02-25T15:13:45.758Z,2.85
2018-02-25T15:16:13.984Z,3.87
2018-02-25T15:18:42.213Z,2.97
2018-02-25T15:21:10.599Z,4.13
2018-02-25T15:23:39.603Z,3.28
2018-02-25T15:26:07.836Z,2.50
2018-02-25T15:28:36.845Z,2.80
2018-02-25T15:31:05.129Z,2.60
2018-02-25T15:33:34.166Z,2.90
2018-02-25T15:36:02.434Z,2.62
2018-02-25T15:38:30.690Z,2.67
2018-02-25T15:40:58.971Z,2.70
2018-02-25T15:43:27.240Z,2.60
2018-02-25T15:45:55.592Z,2.92
2018-02-25T15:48:24.715Z,2.58
2018-02-25T15:50:53.071Z,3.03
2018-02-25T15:53:22.077Z,3.25
2018-02-25T15:55:50.345Z,2.85
2018-02-25T15:58:19.365Z,3.45
2018-02-25T16:00:47.574Z,2.83
2018-02-25T16:03:15.810Z,4.03
2018-02-25T16:05:44.067Z,3.53
2018-02-25T16:08:13.041Z,2.97
2018-02-25T16:10:42.052Z,3.33
2018-02-25T16:13:11.044Z,3.10
2018-02-25T16:15:40.063Z,3.20
2018-02-25T16:18:08.281Z,3.10
2018-02-25T16:20:36.498Z,2.60
2018-02-25T16:23:04.808Z,2.80
2018-02-25T16:25:33.047Z,3.87
2018-02-25T16:28:01.290Z,2.93
2018-02-25T16:30:29.617Z,3.33
2018-02-25T16:32:57.893Z,3.97
2018-02-25T16:35:26.101Z,3.65
2018-02-25T16:37:55.115Z,3.80
2018-02-25T16:40:23.330Z,3.30
2018-02-25T16:42:51.600Z,3.35
2018-02-25T16:45:19.822Z,3.70
2018-02-25T16:47:48.081Z,3.50
2018-02-25T16:50:16.304Z,4.28
2018-02-25T16:52:44.611Z,4.15
2018-02-25T16:55:12.837Z,4.30
2018-02-25T16:57:41.069Z,3.47
2018-02-25T17:00:09.287Z,3.67
2018-02-25T17:02:37.612Z,3.55
2018-02-25T17:05:05.827Z,3.70
2018-02-25T17:07:34.063Z,3.60
2018-02-25T17:10:02.409Z,3.90
2018-02-25T17:12:30.600Z,3.55
2018-02-25T17:14:59.614Z,3.70
2018-02-25T17:17:27.854Z,4.72
2018-02-25T17:19:56.094Z,3.72
2018-02-25T17:22:24.363Z,4.40
2018-02-25T17:24:52.583Z,4.10
2018-02-25T17:27:20.866Z,4.28
2018-02-25T17:29:49.904Z,5.72
2018-02-25T17:32:18.162Z,6.53
2018-02-25T17:34:46.405Z,5.82
2018-02-25T17:37:14.664Z,9.57
2018-02-25T17:39:42.899Z,8.65
2018-02-25T17:42:11.175Z,6.30
2018-02-25T17:44:39.451Z,4.40
2018-02-25T17:47:08.447Z,4.37
2018-02-25T17:49:36.723Z,4.70
2018-02-25T17:52:04.955Z,5.12
2018-02-25T17:54:33.176Z,6.23
2018-02-25T17:57:01.423Z,5.68
2018-02-25T17:59:30.409Z,5.30
2018-02-25T18:01:59.471Z,5.32
2018-02-25T18:04:27.714Z,5.90
2018-02-25T18:06:55.967Z,5.72
2018-02-25T18:09:24.292Z,5.60
2018-02-25T18:11:52.585Z,6.40
2018-02-25T18:14:20.914Z,6.07
2018-02-25T18:16:49.142Z,5.53
2018-02-25T18:19:17.477Z,5.82
2018-02-25T18:21:45.790Z,7.50
2018-02-25T18:24:14.112Z,6.37
2018-02-25T18:26:43.107Z,5.90
2018-02-25T18:29:11.418Z,6.07
2018-02-25T18:31:39.648Z,6.47
2018-02-25T18:34:08.662Z,6.28
2018-02-25T18:36:36.890Z,7.28
2018-02-25T18:39:05.166Z,7.75
2018-02-25T18:41:34.928Z,7.43
2018-02-25T18:44:03.160Z,7.70
2018-02-25T18:46:31.487Z,14.10
2018-02-25T18:48:59.765Z,11.27
2018-02-25T18:51:28.028Z,10.95
2018-02-25T18:53:56.281Z,10.60
2018-02-25T18:56:25.296Z,7.05
2018-02-25T18:58:53.536Z,6.65
2018-02-25T19:01:21.796Z,6.90
2018-02-25T19:03:50.142Z,6.65
2018-02-25T19:06:18.429Z,6.72
2018-02-25T19:08:46.694Z,6.50
2018-02-25T19:11:15.706Z,6.32
2018-02-25T19:13:43.965Z,6.73
2018-02-25T19:16:12.205Z,6.45
2018-02-25T19:18:40.430Z,6.43
2018-02-25T19:21:08.686Z,6.60
2018-02-25T19:23:36.966Z,5.90
2018-02-25T19:26:05.243Z,6.35
2018-02-25T19:28:33.468Z,5.87
2018-02-25T19:31:01.719Z,5.80
2018-02-25T19:33:30.098Z,5.72
2018-02-25T19:36:04.127Z,6.40
2018-02-25T19:38:38.005Z,6.65
2018-02-25T19:41:12.137Z,6.80
2018-02-25T19:43:40.401Z,6.55
2018-02-25T19:46:08.665Z,6.97
2018-02-25T19:48:36.880Z,6.25
2018-02-25T19:51:05.095Z,6.68
2018-02-25T19:53:33.549Z,6.90
2018-02-25T19:56:01.864Z,6.07
2018-02-25T19:58:30.141Z,6.45
2018-02-25T20:00:58.384Z,6.18
2018-02-25T20:03:26.633Z,6.68
2018-02-25T20:05:54.866Z,6.47
2018-02-25T20:08:23.098Z,7.10
2018-02-25T20:10:51.436Z,6.07
2018-02-25T20:13:19.675Z,7.00
2018-02-25T20:15:48.669Z,6.50
2018-02-25T20:18:17.689Z,6.27
2018-02-25T20:20:45.906Z,6.35
2018-02-25T20:23:14.168Z,6.03
2018-02-25T20:25:42.507Z,6.57
2018-02-25T20:28:10.802Z,6.90
2018-02-25T20:30:39.031Z,6.78
2018-02-25T20:33:08.073Z,6.77
2018-02-25T20:35:36.361Z,6.43
2018-02-25T20:38:04.595Z,6.78
2018-02-25T20:40:33.609Z,6.25
2018-02-25T20:43:01.887Z,6.18
2018-02-25T20:45:30.225Z,6.40
2018-02-25T20:47:58.434Z,6.60
2018-02-25T20:50:26.718Z,6.60
2018-02-25T20:52:54.956Z,6.40
2018-02-25T20:55:23.168Z,6.50
2018-02-25T20:57:51.397Z,6.50
2018-02-25T21:00:19.672Z,7.00
2018-02-25T21:02:47.946Z,6.47
2018-02-25T21:05:16.351Z,6.80
2018-02-25T21:07:44.558Z,6.90
2018-02-25T21:10:12.939Z,6.63
2018-02-25T21:12:41.219Z,6.68
2018-02-25T21:15:09.463Z,6.90
2018-02-25T21:17:38.489Z,7.35
2018-02-25T21:20:07.547Z,7.28
2018-02-25T21:22:36.434Z,7.47
2018-02-25T21:25:05.469Z,7.40
2018-02-25T21:27:33.696Z,7.40
2018-02-25T21:30:01.943Z,7.62
2018-02-25T21:32:30.178Z,9.60
2018-02-25T21:34:58.458Z,8.00
2018-02-25T21:37:26.741Z,8.10
2018-02-25T21:39:55.014Z,7.12
2018-02-25T21:42:23.252Z,7.70
2018-02-25T21:44:51.571Z,13.75
2018-02-25T21:47:19.803Z,26.98
2018-02-25T21:49:48.044Z,20.40
2018-02-25T21:52:16.286Z,8.40
2018-02-25T21:54:50.227Z,8.48
2018-02-25T21:57:24.256Z,8.57
2018-02-25T21:59:58.221Z,8.73
2018-02-25T22:02:32.099Z,8.50
2018-02-25T22:05:01.121Z,11.75
2018-02-25T22:07:29.379Z,9.30
2018-02-25T22:09:58.378Z,9.15
2018-02-25T22:12:27.539Z,9.75
2018-02-25T22:14:55.782Z,10.43
2018-02-25T22:17:24.004Z,10.20
2018-02-25T22:19:52.324Z,9.90
2018-02-25T22:22:20.561Z,10.25
2018-02-25T22:24:48.797Z,10.10
2018-02-25T22:27:17.021Z,10.45
2018-02-25T22:29:46.101Z,10.07
2018-02-25T22:32:14.330Z,11.20
2018-02-25T22:34:42.612Z,11.38
2018-02-25T22:37:10.846Z,12.02
2018-02-25T22:39:39.843Z,10.38
2018-02-25T22:42:08.855Z,10.63
2018-02-25T22:44:37.080Z,10.83
2018-02-25T22:47:05.329Z,11.60
2018-02-25T22:49:33.581Z,11.98
2018-02-25T22:52:01.844Z,11.07
2018-02-25T22:54:30.825Z,11.05
2018-02-25T22:56:59.818Z,11.90
2018-02-25T22:59:28.919Z,11.23
2018-02-25T23:01:57.920Z,12.88
2018-02-25T23:04:26.933Z,12.57
2018-02-25T23:06:55.178Z,11.02
2018-02-25T23:09:23.489Z,10.95
2018-02-25T23:11:51.774Z,11.35
2018-02-25T23:14:20.793Z,10.88
2018-02-25T23:16:49.040Z,10.43
2018-02-25T23:19:17.318Z,10.93
2018-02-25T23:21:45.634Z,10.35
2018-02-25T23:24:13.862Z,10.57
2018-02-25T23:26:42.146Z,10.18
2018-02-25T23:29:11.143Z,10.27
2018-02-25T23:31:39.498Z,10.70
2018-02-25T23:34:07.780Z,12.85
2018-02-25T23:36:36.058Z,11.30
2018-02-25T23:39:05.075Z,10.15
2018-02-25T23:41:33.326Z,9.68
2018-02-25T23:44:02.412Z,9.70
2018-02-25T23:46:31.389Z,9.40
2018-02-25T23:48:59.655Z,8.90
2018-02-25T23:51:27.918Z,9.27
2018-02-25T23:53:56.142Z,8.93
2018-02-25T23:56:25.130Z,8.60
2018-02-25T23:58:54.140Z,8.80
